createdAt,value
2018-06-27T00:02:25.007Z,17.68
2018-06-27T00:04:55.803Z,17.59
2018-06-27T00:07:26.319Z,17.49
2018-06-27T00:09:56.815Z,17.42
2018-06-27T00:12:27.175Z,17.38
2018-06-27T00:14:57.501Z,17.31
2018-06-27T00:17:28.105Z,17.24
2018-06-27T00:19:59.566Z,17.12
2018-06-27T00:22:30.095Z,16.99
2018-06-27T00:25:00.614Z,16.86
2018-06-27T00:27:31.163Z,16.76
2018-06-27T00:30:01.709Z,16.72
2018-06-27T00:32:46.186Z,16.73
2018-06-27T00:35:16.818Z,16.72
2018-06-27T00:37:47.285Z,16.71
2018-06-27T00:40:17.929Z,16.66
2018-06-27T00:42:48.692Z,16.57
2018-06-27T00:45:19.281Z,16.49
2018-06-27T00:48:00.220Z,16.44
2018-06-27T00:50:30.717Z,16.37
2018-06-27T00:53:01.067Z,16.31
2018-06-27T00:55:31.792Z,16.24
2018-06-27T00:58:02.363Z,16.17
2018-06-27T01:00:32.958Z,16.09
2018-06-27T01:03:11.430Z,16.05
2018-06-27T01:05:42.029Z,15.89
2018-06-27T01:08:12.076Z,15.87
2018-06-27T01:10:42.636Z,15.82
2018-06-27T01:13:13.436Z,15.74
2018-06-27T01:15:43.876Z,15.75
2018-06-27T01:18:14.491Z,15.73
2018-06-27T01:20:45.219Z,15.68
2018-06-27T01:23:15.771Z,15.64
2018-06-27T01:25:46.556Z,15.67
2018-06-27T01:28:17.031Z,15.65
2018-06-27T01:30:47.547Z,15.60
2018-06-27T01:33:18.071Z,15.59
2018-06-27T01:35:48.583Z,15.54
2018-06-27T01:38:19.156Z,15.50
2018-06-27T01:40:49.774Z,15.43
2018-06-27T01:43:20.349Z,15.36
2018-06-27T01:45:50.780Z,15.37
2018-06-27T01:48:21.500Z,15.41
2018-06-27T01:50:52.375Z,15.41
2018-06-27T01:53:23.184Z,15.29
2018-06-27T01:55:53.815Z,15.09
2018-06-27T01:58:24.439Z,14.95
2018-06-27T02:00:54.938Z,14.76
2018-06-27T02:03:25.548Z,14.62
2018-06-27T02:05:56.051Z,14.55
2018-06-27T02:08:26.151Z,14.59
2018-06-27T02:10:56.606Z,14.62
2018-06-27T02:13:27.085Z,14.64
2018-06-27T02:15:57.580Z,14.65
2018-06-27T02:18:27.968Z,14.62
2018-06-27T02:21:02.063Z,14.58
2018-06-27T02:23:32.513Z,14.56
2018-06-27T02:26:03.143Z,14.50
2018-06-27T02:28:33.799Z,14.49
2018-06-27T02:31:04.195Z,14.56
2018-06-27T02:33:34.597Z,14.49
2018-06-27T02:36:09.257Z,14.34
2018-06-27T02:38:39.803Z,14.27
2018-06-27T02:41:10.371Z,14.31
2018-06-27T02:43:40.850Z,14.29
2018-06-27T02:46:11.349Z,14.25
2018-06-27T02:48:41.652Z,14.32
2018-06-27T02:51:12.371Z,14.33
2018-06-27T02:53:42.808Z,14.27
2018-06-27T02:56:13.261Z,14.30
2018-06-27T02:58:43.739Z,14.23
2018-06-27T03:01:14.275Z,14.16
2018-06-27T03:03:44.680Z,14.11
2018-06-27T03:06:15.360Z,14.15
2018-06-27T03:08:45.894Z,14.12
2018-06-27T03:11:16.303Z,14.12
2018-06-27T03:13:46.732Z,14.13
2018-06-27T03:16:17.268Z,14.03
2018-06-27T03:18:54.885Z,14.03
2018-06-27T03:21:26.262Z,13.98
2018-06-27T03:23:56.848Z,13.93
2018-06-27T03:26:27.420Z,13.86
2018-06-27T03:28:57.813Z,13.84
2018-06-27T03:31:28.573Z,13.83
2018-06-27T03:33:59.115Z,13.86
2018-06-27T03:36:29.495Z,13.91
2018-06-27T03:38:59.505Z,13.93
2018-06-27T03:41:30.018Z,13.92
2018-06-27T03:44:00.511Z,13.93
2018-06-27T03:46:31.085Z,13.99
2018-06-27T03:49:01.663Z,13.97
2018-06-27T03:51:32.240Z,13.97
2018-06-27T03:54:02.636Z,13.99
2018-06-27T03:56:33.052Z,14.02
2018-06-27T03:59:03.511Z,14.12
2018-06-27T04:01:34.011Z,14.20
2018-06-27T04:04:04.646Z,14.29
2018-06-27T04:06:35.028Z,14.38
2018-06-27T04:09:09.265Z,14.45
2018-06-27T04:11:40.419Z,14.50
2018-06-27T04:14:10.879Z,14.58
2018-06-27T04:16:41.577Z,14.68
2018-06-27T04:19:11.956Z,14.80
2018-06-27T04:21:42.576Z,14.95
2018-06-27T04:24:13.172Z,15.09
2018-06-27T04:26:43.624Z,15.22
2018-06-27T04:29:14.255Z,15.39
2018-06-27T04:31:44.650Z,15.58
2018-06-27T04:34:15.191Z,15.84
2018-06-27T04:36:45.611Z,16.15
2018-06-27T04:39:16.048Z,16.49
2018-06-27T04:41:46.623Z,16.89
2018-06-27T04:44:17.006Z,17.21
2018-06-27T04:46:47.636Z,17.56
2018-06-27T04:49:17.992Z,17.91
2018-06-27T04:51:48.574Z,18.21
2018-06-27T04:54:19.238Z,18.26
2018-06-27T04:56:49.815Z,18.10
2018-06-27T04:59:20.500Z,17.82
2018-06-27T05:01:51.064Z,17.70
2018-06-27T05:04:21.599Z,17.57
2018-06-27T05:06:55.300Z,17.50
2018-06-27T05:09:26.045Z,17.92
2018-06-27T05:11:56.475Z,18.41
2018-06-27T05:14:26.998Z,18.98
2018-06-27T05:16:57.371Z,18.96
2018-06-27T05:19:28.104Z,19.04
2018-06-27T05:21:58.659Z,19.54
2018-06-27T05:24:29.406Z,20.15
2018-06-27T05:26:59.935Z,20.17
2018-06-27T05:29:43.353Z,20.23
2018-06-27T05:32:13.810Z,20.33
2018-06-27T05:34:44.150Z,20.45
2018-06-27T05:37:14.615Z,20.33
2018-06-27T05:39:44.627Z,21.53
2018-06-27T05:42:15.152Z,23.35
2018-06-27T05:44:45.734Z,23.17
2018-06-27T05:47:15.882Z,24.58
2018-06-27T05:49:57.230Z,25.16
2018-06-27T05:52:27.924Z,25.96
2018-06-27T05:55:03.241Z,25.16
2018-06-27T05:57:33.764Z,24.08
2018-06-27T06:00:04.745Z,24.55
2018-06-27T06:02:35.114Z,23.76
2018-06-27T06:05:05.935Z,23.33
2018-06-27T06:07:36.597Z,23.33
2018-06-27T06:10:07.169Z,25.60
2018-06-27T06:12:37.743Z,26.79
2018-06-27T06:15:08.407Z,26.15
2018-06-27T06:17:39.307Z,24.84
2018-06-27T06:20:09.804Z,26.71
2018-06-27T06:22:40.175Z,26.82
2018-06-27T06:25:10.575Z,27.56
2018-06-27T06:27:40.640Z,26.75
2018-06-27T06:30:10.807Z,26.33
2018-06-27T06:32:44.796Z,27.74
2018-06-27T06:35:14.690Z,27.88
2018-06-27T06:37:44.862Z,26.40
2018-06-27T06:40:15.571Z,26.20
2018-06-27T06:42:45.740Z,26.60
2018-06-27T06:45:15.693Z,28.38
2018-06-27T06:47:53.315Z,26.95
2018-06-27T06:50:23.861Z,25.90
2018-06-27T06:52:54.327Z,26.64
2018-06-27T06:55:24.917Z,26.42
2018-06-27T06:58:03.012Z,25.72
2018-06-27T07:00:41.463Z,25.16
2018-06-27T07:03:11.535Z,26.26
2018-06-27T07:05:41.675Z,25.22
2018-06-27T07:08:11.943Z,25.49
2018-06-27T07:10:42.432Z,25.36
2018-06-27T07:13:12.755Z,25.63
2018-06-27T07:15:43.395Z,25.63
2018-06-27T07:18:13.890Z,25.47
2018-06-27T07:20:52.188Z,26.17
2018-06-27T07:23:22.668Z,26.53
2018-06-27T07:25:52.770Z,26.57
2018-06-27T07:28:23.266Z,26.48
2018-06-27T07:30:53.555Z,27.13
2018-06-27T07:33:23.905Z,27.35
2018-06-27T07:36:14.636Z,27.66
2018-06-27T07:38:45.025Z,26.38
2018-06-27T07:41:15.476Z,25.74
2018-06-27T07:43:45.848Z,25.27
2018-06-27T07:46:16.341Z,25.44
2018-06-27T07:48:46.729Z,25.76
2018-06-27T07:51:17.201Z,24.92
2018-06-27T07:53:47.213Z,26.27
2018-06-27T07:56:17.573Z,27.45
2018-06-27T07:58:48.028Z,28.11
2018-06-27T08:01:18.439Z,27.47
2018-06-27T08:03:49.222Z,25.84
2018-06-27T08:06:19.656Z,25.68
2018-06-27T08:08:50.431Z,26.11
2018-06-27T08:11:20.528Z,25.60
2018-06-27T08:13:50.741Z,27.03
2018-06-27T08:16:21.328Z,27.12
2018-06-27T08:18:52.012Z,28.20
2018-06-27T08:21:22.224Z,28.99
2018-06-27T08:23:52.552Z,27.09
2018-06-27T08:26:22.900Z,26.36
2018-06-27T08:28:53.389Z,28.44
2018-06-27T08:31:23.532Z,28.95
2018-06-27T08:33:54.040Z,28.57
2018-06-27T08:36:24.204Z,27.02
2018-06-27T08:38:54.536Z,28.87
2018-06-27T08:41:25.110Z,26.57
2018-06-27T08:43:55.616Z,27.59
2018-06-27T08:46:26.159Z,27.59
2018-06-27T08:48:56.312Z,28.25
2018-06-27T08:51:26.865Z,26.84
2018-06-27T08:53:57.235Z,28.38
2018-06-27T08:56:27.209Z,27.41
2018-06-27T08:58:57.675Z,28.07
2018-06-27T09:01:28.147Z,27.73
2018-06-27T09:03:58.252Z,27.62
2018-06-27T09:06:28.607Z,28.01
2018-06-27T09:08:58.969Z,29.64
2018-06-27T09:11:29.055Z,30.34
2018-06-27T09:13:59.256Z,28.80
2018-06-27T09:16:29.407Z,29.70
2018-06-27T09:19:00.035Z,30.30
2018-06-27T09:21:30.430Z,29.70
2018-06-27T09:24:00.757Z,28.63
2018-06-27T09:26:31.147Z,26.92
2018-06-27T09:29:01.474Z,26.92
2018-06-27T09:31:31.786Z,29.21
2018-06-27T09:34:01.948Z,30.33
2018-06-27T09:36:32.264Z,29.02
2018-06-27T09:39:02.836Z,30.27
2018-06-27T09:41:33.344Z,29.05
2018-06-27T09:44:03.910Z,28.59
2018-06-27T09:46:35.052Z,29.28
2018-06-27T09:49:05.522Z,30.68
2018-06-27T09:51:35.895Z,31.15
2018-06-27T09:54:06.560Z,30.67
2018-06-27T09:56:37.070Z,31.53
2018-06-27T09:59:07.155Z,30.70
2018-06-27T10:01:37.588Z,28.69
2018-06-27T10:04:08.070Z,29.36
2018-06-27T10:06:38.629Z,30.02
2018-06-27T10:09:10.611Z,29.96
2018-06-27T10:11:41.107Z,29.97
2018-06-27T10:14:11.583Z,29.33
2018-06-27T10:16:41.989Z,30.11
2018-06-27T10:19:12.404Z,30.26
2018-06-27T10:21:42.439Z,30.55
2018-06-27T10:24:12.529Z,29.87
2018-06-27T10:26:43.092Z,30.25
2018-06-27T10:29:13.432Z,30.25
2018-06-27T10:31:43.776Z,30.98
2018-06-27T10:34:13.874Z,29.66
2018-06-27T10:36:44.270Z,30.32
2018-06-27T10:39:14.806Z,29.16
2018-06-27T10:41:45.281Z,30.36
2018-06-27T10:44:15.816Z,30.80
2018-06-27T10:46:45.816Z,29.66
2018-06-27T10:49:16.298Z,29.42
2018-06-27T10:51:46.455Z,30.04
2018-06-27T10:54:16.680Z,30.17
2018-06-27T10:56:47.176Z,32.33
2018-06-27T10:59:17.769Z,33.83
2018-06-27T11:01:48.281Z,32.12
2018-06-27T11:04:18.859Z,33.20
2018-06-27T11:06:49.278Z,33.48
2018-06-27T11:09:19.736Z,31.69
2018-06-27T11:11:49.730Z,30.87
2018-06-27T11:14:20.138Z,31.46
2018-06-27T11:16:50.457Z,29.53
2018-06-27T11:19:20.822Z,30.96
2018-06-27T11:21:51.435Z,31.86
2018-06-27T11:24:21.795Z,31.57
2018-06-27T11:26:52.458Z,32.53
2018-06-27T11:29:22.834Z,30.75
2018-06-27T11:31:52.694Z,32.44
2018-06-27T11:34:22.864Z,30.63
2018-06-27T11:36:53.589Z,30.55
2018-06-27T11:39:23.923Z,31.59
2018-06-27T11:41:54.369Z,32.09
2018-06-27T11:44:24.799Z,33.10
2018-06-27T11:46:55.336Z,30.85
2018-06-27T11:49:26.113Z,29.34
2018-06-27T11:51:56.603Z,29.84
2018-06-27T11:54:26.909Z,30.07
2018-06-27T11:56:57.404Z,29.60
2018-06-27T11:59:27.572Z,31.11
2018-06-27T12:01:57.867Z,30.10
2018-06-27T12:04:28.563Z,29.08
2018-06-27T12:06:59.646Z,28.72
2018-06-27T12:09:29.557Z,27.74
2018-06-27T12:11:59.903Z,26.85
2018-06-27T12:14:30.316Z,30.00
2018-06-27T12:17:00.794Z,31.19
2018-06-27T12:19:31.515Z,31.67
2018-06-27T12:22:02.068Z,33.64
2018-06-27T12:24:32.673Z,31.14
2018-06-27T12:27:03.026Z,31.37
2018-06-27T12:29:33.497Z,32.50
2018-06-27T12:32:03.914Z,33.31
2018-06-27T12:34:34.330Z,34.04
2018-06-27T12:37:04.827Z,33.93
2018-06-27T12:39:35.248Z,33.27
2018-06-27T12:42:05.679Z,33.07
2018-06-27T12:44:35.647Z,33.95
2018-06-27T12:47:05.997Z,32.64
2018-06-27T12:49:36.498Z,32.78
2018-06-27T12:52:07.076Z,33.16
2018-06-27T12:55:04.816Z,33.48
2018-06-27T12:57:35.304Z,35.26
2018-06-27T13:00:07.768Z,36.75
2018-06-27T13:02:37.820Z,34.97
2018-06-27T13:05:09.889Z,33.68
2018-06-27T13:07:39.963Z,36.55
2018-06-27T13:10:10.610Z,37.77
2018-06-27T13:12:40.959Z,35.80
2018-06-27T13:15:11.408Z,37.42
2018-06-27T13:17:41.420Z,39.53
2018-06-27T13:20:11.659Z,36.98
2018-06-27T13:22:41.515Z,35.61
2018-06-27T13:25:11.875Z,33.60
2018-06-27T13:27:42.531Z,30.34
2018-06-27T13:30:13.187Z,29.72
2018-06-27T13:32:43.869Z,28.35
2018-06-27T13:35:14.243Z,26.99
2018-06-27T13:37:44.359Z,27.13
2018-06-27T13:40:14.420Z,26.31
2018-06-27T13:42:44.834Z,26.40
2018-06-27T13:45:14.920Z,26.31
2018-06-27T13:47:45.367Z,26.74
2018-06-27T13:50:15.700Z,27.01
2018-06-27T13:52:46.288Z,26.94
2018-06-27T13:55:22.694Z,26.55
2018-06-27T13:57:53.154Z,26.52
2018-06-27T14:00:23.730Z,25.83
2018-06-27T14:02:53.935Z,25.59
2018-06-27T14:05:24.121Z,25.60
2018-06-27T14:07:54.216Z,25.33
2018-06-27T14:10:24.738Z,24.89
2018-06-27T14:12:55.488Z,24.61
2018-06-27T14:15:25.990Z,24.25
2018-06-27T14:17:56.563Z,24.46
2018-06-27T14:20:26.917Z,24.56
2018-06-27T14:22:57.551Z,26.70
2018-06-27T14:25:28.115Z,27.37
2018-06-27T14:27:58.506Z,27.97
2018-06-27T14:30:28.934Z,27.65
2018-06-27T14:32:59.620Z,27.73
2018-06-27T14:35:30.081Z,27.40
2018-06-27T14:38:00.789Z,27.71
2018-06-27T14:40:31.515Z,26.95
2018-06-27T14:43:01.961Z,26.35
2018-06-27T14:45:32.045Z,26.20
2018-06-27T14:48:02.680Z,25.96
2018-06-27T14:50:33.148Z,25.56
2018-06-27T14:53:03.784Z,25.30
2018-06-27T14:55:34.208Z,25.35
2018-06-27T14:58:04.607Z,25.31
2018-06-27T15:00:34.951Z,25.53
2018-06-27T15:03:05.365Z,25.16
2018-06-27T15:05:35.991Z,25.47
2018-06-27T15:08:06.541Z,25.78
2018-06-27T15:10:36.866Z,25.90
2018-06-27T15:13:07.332Z,26.34
2018-06-27T15:15:37.969Z,26.62
2018-06-27T15:18:08.429Z,28.46
2018-06-27T15:20:39.084Z,29.65
2018-06-27T15:23:09.581Z,28.97
2018-06-27T15:25:39.990Z,28.55
2018-06-27T15:28:10.395Z,28.24
2018-06-27T15:30:40.886Z,27.54
2018-06-27T15:33:11.382Z,27.13
2018-06-27T15:35:41.783Z,26.97
2018-06-27T15:38:11.992Z,27.20
2018-06-27T15:40:42.490Z,27.02
2018-06-27T15:43:14.760Z,26.89
2018-06-27T15:45:44.987Z,25.51
2018-06-27T15:48:15.811Z,27.10
2018-06-27T15:50:46.128Z,28.51
2018-06-27T15:53:16.217Z,29.38
2018-06-27T15:55:46.804Z,27.25
2018-06-27T15:58:17.567Z,27.78
2018-06-27T16:00:47.964Z,27.12
2018-06-27T16:03:18.396Z,26.15
2018-06-27T16:06:05.851Z,25.93
2018-06-27T16:08:36.377Z,26.94
2018-06-27T16:11:06.996Z,27.51
2018-06-27T16:13:37.846Z,28.43
2018-06-27T16:16:09.637Z,28.59
2018-06-27T16:18:40.188Z,27.82
2018-06-27T16:21:10.759Z,27.96
2018-06-27T16:23:41.269Z,28.11
2018-06-27T16:26:11.373Z,30.72
2018-06-27T16:28:41.592Z,31.04
2018-06-27T16:31:17.624Z,32.69
2018-06-27T16:33:48.036Z,34.59
2018-06-27T16:36:18.190Z,33.23
2018-06-27T16:38:48.791Z,33.07
2018-06-27T16:41:19.228Z,33.11
2018-06-27T16:43:49.693Z,32.12
2018-06-27T16:46:37.690Z,30.75
2018-06-27T16:49:08.663Z,28.91
2018-06-27T16:51:41.595Z,28.84
2018-06-27T16:54:12.069Z,29.04
2018-06-27T16:56:42.460Z,28.20
2018-06-27T16:59:12.908Z,29.36
2018-06-27T17:01:43.561Z,30.29
2018-06-27T17:04:14.084Z,30.03
2018-06-27T17:06:44.623Z,30.89
2018-06-27T17:09:15.229Z,32.26
2018-06-27T17:11:45.775Z,31.44
2018-06-27T17:14:16.230Z,30.67
2018-06-27T17:16:46.075Z,31.07
2018-06-27T17:19:16.848Z,31.13
2018-06-27T17:21:47.273Z,30.17
2018-06-27T17:27:24.584Z,28.78
2018-06-27T17:29:55.098Z,27.66
2018-06-27T17:32:32.650Z,27.07
2018-06-27T17:35:03.727Z,28.16
2018-06-27T17:37:35.397Z,29.63
2018-06-27T17:40:06.766Z,30.30
2018-06-27T17:42:37.171Z,29.96
2018-06-27T17:45:07.970Z,30.08
2018-06-27T17:47:38.522Z,30.31
2018-06-27T17:50:09.023Z,31.15
2018-06-27T17:52:40.541Z,32.13
2018-06-27T17:55:16.723Z,30.22
2018-06-27T17:57:46.612Z,28.67
2018-06-27T18:00:17.373Z,28.56
2018-06-27T18:02:47.710Z,28.85
2018-06-27T18:05:36.480Z,29.36
2018-06-27T18:08:06.877Z,29.91
2018-06-27T18:10:37.391Z,29.27
2018-06-27T18:13:07.879Z,29.16
2018-06-27T18:15:38.391Z,29.68
2018-06-27T18:21:08.839Z,31.04
2018-06-27T18:23:39.359Z,29.18
2018-06-27T18:26:09.879Z,26.93
2018-06-27T18:28:40.271Z,25.16
2018-06-27T18:31:10.795Z,24.09
2018-06-27T18:33:41.204Z,23.62
2018-06-27T18:36:11.893Z,23.26
2018-06-27T18:38:42.336Z,23.02
2018-06-27T18:41:12.447Z,22.85
2018-06-27T18:43:53.459Z,22.68
2018-06-27T18:46:24.056Z,22.64
2018-06-27T18:49:02.350Z,22.55
2018-06-27T18:51:32.852Z,22.37
2018-06-27T18:54:03.367Z,22.37
2018-06-27T18:56:34.575Z,22.25
2018-06-27T18:59:05.029Z,22.08
2018-06-27T19:01:36.713Z,22.07
2018-06-27T19:04:07.315Z,21.94
2018-06-27T19:06:43.336Z,21.98
2018-06-27T19:09:14.083Z,21.90
2018-06-27T19:11:44.617Z,21.82
2018-06-27T19:14:15.140Z,21.68
2018-06-27T19:17:03.132Z,21.59
2018-06-27T19:19:33.534Z,21.58
2018-06-27T19:22:09.636Z,21.46
2018-06-27T19:24:40.461Z,21.26
2018-06-27T19:27:11.092Z,21.15
2018-06-27T19:29:41.703Z,21.23
2018-06-27T19:32:12.235Z,21.24
2018-06-27T19:34:42.938Z,21.16
2018-06-27T19:37:14.512Z,21.03
2018-06-27T19:39:45.280Z,20.97
2018-06-27T19:42:15.834Z,20.89
2018-06-27T19:44:45.729Z,20.80
2018-06-27T19:47:16.439Z,20.63
2018-06-27T19:49:47.477Z,20.45
2018-06-27T19:52:18.177Z,20.47
2018-06-27T19:54:53.095Z,20.53
2018-06-27T19:57:24.812Z,20.50
2018-06-27T19:59:55.240Z,20.52
2018-06-27T20:02:25.709Z,20.34
2018-06-27T20:04:56.145Z,20.12
2018-06-27T20:07:26.716Z,20.07
2018-06-27T20:09:56.664Z,19.99
2018-06-27T20:12:30.515Z,20.05
2018-06-27T20:15:01.066Z,20.03
2018-06-27T20:17:31.544Z,20.01
2018-06-27T20:20:01.841Z,19.96
2018-06-27T20:22:32.408Z,19.85
2018-06-27T20:25:04.841Z,19.73
2018-06-27T20:27:35.405Z,19.57
2018-06-27T20:30:13.236Z,19.72
2018-06-27T20:32:43.856Z,19.69
2018-06-27T20:35:14.301Z,19.63
2018-06-27T20:37:44.941Z,19.65
2018-06-27T20:40:15.487Z,19.62
2018-06-27T20:42:46.483Z,19.70
2018-06-27T20:45:27.848Z,19.73
2018-06-27T20:47:58.307Z,19.81
2018-06-27T20:50:39.495Z,19.79
2018-06-27T20:53:10.140Z,19.87
2018-06-27T20:55:40.653Z,19.87
2018-06-27T20:58:11.345Z,19.82
2018-06-27T21:00:41.544Z,19.83
2018-06-27T21:03:12.226Z,19.74
2018-06-27T21:05:42.860Z,19.68
2018-06-27T21:08:13.195Z,19.55
2018-06-27T21:10:45.767Z,19.51
2018-06-27T21:13:16.503Z,19.51
2018-06-27T21:15:47.076Z,19.46
2018-06-27T21:18:30.905Z,19.42
2018-06-27T21:21:13.224Z,19.47
2018-06-27T21:23:47.651Z,19.43
2018-06-27T21:26:22.546Z,19.36
2018-06-27T21:28:54.084Z,19.40
2018-06-27T21:31:25.476Z,19.45
2018-06-27T21:34:16.151Z,19.46
2018-06-27T21:36:48.643Z,19.50
2018-06-27T21:39:25.621Z,19.52
2018-06-27T21:42:00.288Z,19.48
2018-06-27T21:44:30.736Z,19.43
2018-06-27T21:47:01.327Z,19.39
2018-06-27T21:49:31.961Z,19.40
2018-06-27T21:52:02.359Z,19.34
2018-06-27T21:54:32.467Z,19.26
2018-06-27T21:57:02.835Z,19.25
2018-06-27T21:59:33.119Z,19.20
2018-06-27T22:02:03.720Z,19.12
2018-06-27T22:04:34.259Z,19.11
2018-06-27T22:07:05.207Z,18.98
2018-06-27T22:09:35.216Z,18.91
2018-06-27T22:12:05.862Z,18.90
2018-06-27T22:14:36.507Z,18.79
2018-06-27T22:17:07.009Z,18.70
2018-06-27T22:19:37.504Z,18.63
2018-06-27T22:22:07.902Z,18.62
2018-06-27T22:24:38.345Z,18.59
2018-06-27T22:27:08.915Z,18.50
2018-06-27T22:29:39.596Z,18.44
2018-06-27T22:32:11.408Z,18.44
2018-06-27T22:34:44.099Z,18.39
2018-06-27T22:37:14.560Z,18.30
2018-06-27T22:39:45.080Z,18.16
2018-06-27T22:42:15.424Z,18.12
2018-06-27T22:44:45.600Z,18.02
2018-06-27T22:47:32.295Z,18.01
2018-06-27T22:50:02.875Z,17.95
2018-06-27T22:52:33.312Z,17.93
2018-06-27T22:55:04.823Z,17.82
2018-06-27T22:57:50.971Z,17.72
2018-06-27T23:00:25.646Z,17.63
2018-06-27T23:03:07.360Z,17.66
2018-06-27T23:05:37.975Z,17.57
2018-06-27T23:11:08.668Z,17.37
2018-06-27T23:13:39.286Z,17.26
2018-06-27T23:16:09.634Z,17.14
2018-06-27T23:18:40.139Z,17.13
2018-06-27T23:21:10.524Z,17.04
2018-06-27T23:23:41.181Z,17.06
2018-06-27T23:26:12.243Z,17.04
2018-06-27T23:28:42.839Z,17.02
2018-06-27T23:31:13.360Z,16.96
2018-06-27T23:33:44.124Z,16.89
2018-06-27T23:36:14.772Z,16.87
2018-06-27T23:38:45.281Z,16.95
2018-06-27T23:41:15.626Z,16.94
2018-06-27T23:44:10.745Z,16.88
2018-06-27T23:46:41.472Z,16.89
2018-06-27T23:49:12.325Z,16.81
2018-06-27T23:51:42.873Z,16.79
2018-06-27T23:54:13.622Z,16.82
2018-06-27T23:56:44.137Z,16.78
2018-06-27T23:59:14.692Z,16.76
